sensor_id;sensor_type;location;lat;lon;timestamp;pressure;altitude;pressure_sealevel;temperature;humidity
61014;BME280;46899;47.542;19.082;2023-04-02T00:01:02;99422.06;;;8.60;100.00
61014;BME280;46899;47.542;19.082;2023-04-02T00:04:03;99424.34;;;8.67;100.00
61014;BME280;46899;47.542;19.082;2023-04-02T00:07:25;99420.28;;;8.62;100.00
61014;BME280;46899;47.542;19.082;2023-04-02T00:10:35;99437.31;;;8.67;100.00
61014;BME280;46899;47.542;19.082;2023-04-02T00:13:40;99429.69;;;8.64;100.00
61014;BME280;46899;47.542;19.082;2023-04-02T00:16:45;99441.47;;;8.71;100.00
61014;BME280;46899;47.542;19.082;2023-04-02T00:19:57;99435.16;;;8.77;100.00
61014;BME280;46899;47.542;19.082;2023-04-02T00:23:02;99440.47;;;8.74;100.00
61014;BME280;46899;47.542;19.082;2023-04-02T00:26:18;99440.62;;;8.71;100.00
61014;BME280;46899;47.542;19.082;2023-04-02T00:29:25;99449.31;;;8.70;100.00
61014;BME280;46899;47.542;19.082;2023-04-02T00:32:29;99449.38;;;8.68;100.00
61014;BME280;46899;47.542;19.082;2023-04-02T00:35:35;99454.25;;;8.76;100.00
61014;BME280;46899;47.542;19.082;2023-04-02T00:38:39;99442.06;;;8.78;100.00
61014;BME280;46899;47.542;19.082;2023-04-02T00:41:45;99439.69;;;8.72;100.00
61014;BME280;46899;47.542;19.082;2023-04-02T00:44:49;99448.41;;;8.71;100.00
61014;BME280;46899;47.542;19.082;2023-04-02T00:47:53;99441.28;;;8.76;100.00
61014;BME280;46899;47.542;19.082;2023-04-02T00:50:56;99446.50;;;8.74;100.00
61014;BME280;46899;47.542;19.082;2023-04-02T00:54:01;99449.31;;;8.70;100.00
61014;BME280;46899;47.542;19.082;2023-04-02T00:57:09;99451.13;;;8.68;100.00
61014;BME280;46899;47.542;19.082;2023-04-02T01:06:25;99456.38;;;8.66;100.00
61014;BME280;46899;47.542;19.082;2023-04-02T01:12:37;99458.50;;;8.77;100.00
61014;BME280;46899;47.542;19.082;2023-04-02T01:25:56;99459.03;;;8.85;100.00
61014;BME280;46899;47.542;19.082;2023-04-02T01:32:04;99455.41;;;8.89;100.00
61014;BME280;46899;47.542;19.082;2023-04-02T01:35:08;99453.00;;;8.84;100.00
61014;BME280;46899;47.542;19.082;2023-04-02T01:38:12;99448.72;;;8.83;100.00
61014;BME280;46899;47.542;19.082;2023-04-02T01:41:29;99454.72;;;8.85;100.00
61014;BME280;46899;47.542;19.082;2023-04-02T01:44:45;99447.81;;;8.84;100.00
61014;BME280;46899;47.542;19.082;2023-04-02T01:47:49;99457.34;;;8.84;100.00
61014;BME280;46899;47.542;19.082;2023-04-02T01:50:53;99462.53;;;8.84;100.00
61014;BME280;46899;47.542;19.082;2023-04-02T01:53:57;99461.84;;;8.80;100.00
61014;BME280;46899;47.542;19.082;2023-04-02T01:57:01;99460.72;;;8.86;100.00
61014;BME280;46899;47.542;19.082;2023-04-02T02:00:04;99474.59;;;8.85;100.00
61014;BME280;46899;47.542;19.082;2023-04-02T02:03:14;99480.66;;;8.85;100.00
61014;BME280;46899;47.542;19.082;2023-04-02T02:06:18;99474.34;;;8.91;100.00
61014;BME280;46899;47.542;19.082;2023-04-02T02:09:22;99478.47;;;8.95;100.00
61014;BME280;46899;47.542;19.082;2023-04-02T02:12:26;99480.09;;;8.98;100.00
61014;BME280;46899;47.542;19.082;2023-04-02T02:15:30;99480.94;;;8.98;100.00
61014;BME280;46899;47.542;19.082;2023-04-02T02:18:34;99486.25;;;8.95;100.00
61014;BME280;46899;47.542;19.082;2023-04-02T02:21:38;99485.63;;;8.90;100.00
61014;BME280;46899;47.542;19.082;2023-04-02T02:24:43;99478.09;;;8.84;100.00
61014;BME280;46899;47.542;19.082;2023-04-02T02:31:06;99484.13;;;8.84;100.00
61014;BME280;46899;47.542;19.082;2023-04-02T02:34:15;99480.69;;;8.84;100.00
61014;BME280;46899;47.542;19.082;2023-04-02T02:37:23;99484.41;;;8.78;100.00
61014;BME280;46899;47.542;19.082;2023-04-02T02:40:30;99477.78;;;8.71;100.00
61014;BME280;46899;47.542;19.082;2023-04-02T02:43:43;99483.56;;;8.78;100.00
61014;BME280;46899;47.542;19.082;2023-04-02T02:46:50;99484.63;;;8.72;100.00
61014;BME280;46899;47.542;19.082;2023-04-02T02:49:55;99483.00;;;8.70;100.00
61014;BME280;46899;47.542;19.082;2023-04-02T02:53:02;99481.69;;;8.60;100.00
61014;BME280;46899;47.542;19.082;2023-04-02T02:56:06;99483.22;;;8.65;100.00
61014;BME280;46899;47.542;19.082;2023-04-02T02:59:09;99487.03;;;8.77;100.00
61014;BME280;46899;47.542;19.082;2023-04-02T03:02:14;99484.41;;;8.78;100.00
61014;BME280;46899;47.542;19.082;2023-04-02T03:05:19;99479.53;;;8.71;100.00
61014;BME280;46899;47.542;19.082;2023-04-02T03:08:29;99479.66;;;8.68;100.00
61014;BME280;46899;47.542;19.082;2023-04-02T03:14:39;99480.81;;;8.61;100.00
61014;BME280;46899;47.542;19.082;2023-04-02T03:24:00;99490.72;;;8.30;100.00
61014;BME280;46899;47.542;19.082;2023-04-02T03:33:19;99500.06;;;8.34;100.00
61014;BME280;46899;47.542;19.082;2023-04-02T03:39:32;99499.44;;;8.27;100.00
61014;BME280;46899;47.542;19.082;2023-04-02T03:49:18;99506.16;;;8.33;100.00
61014;BME280;46899;47.542;19.082;2023-04-02T03:52:23;99498.44;;;8.31;100.00
61014;BME280;46899;47.542;19.082;2023-04-02T03:55:28;99511.88;;;8.17;100.00
61014;BME280;46899;47.542;19.082;2023-04-02T03:58:36;99512.97;;;8.12;100.00
61014;BME280;46899;47.542;19.082;2023-04-02T04:02:25;99514.41;;;7.97;100.00
61014;BME280;46899;47.542;19.082;2023-04-02T04:05:06;99525.78;;;7.93;100.00
61014;BME280;46899;47.542;19.082;2023-04-02T04:08:21;99532.53;;;7.97;100.00
61014;BME280;46899;47.542;19.082;2023-04-02T04:11:29;99531.50;;;8.01;100.00
61014;BME280;46899;47.542;19.082;2023-04-02T04:14:34;99526.56;;;7.95;100.00
61014;BME280;46899;47.542;19.082;2023-04-02T04:17:52;99534.78;;;8.06;100.00
61014;BME280;46899;47.542;19.082;2023-04-02T04:20:58;99535.56;;;8.08;100.00
61014;BME280;46899;47.542;19.082;2023-04-02T04:24:15;99539.59;;;8.15;100.00
61014;BME280;46899;47.542;19.082;2023-04-02T04:27:29;99538.75;;;8.15;100.00
61014;BME280;46899;47.542;19.082;2023-04-02T04:30:43;99534.31;;;8.18;100.00
61014;BME280;46899;47.542;19.082;2023-04-02T04:33:50;99536.78;;;8.21;100.00
61014;BME280;46899;47.542;19.082;2023-04-02T04:36:58;99533.03;;;8.30;100.00
61014;BME280;46899;47.542;19.082;2023-04-02T04:44:05;99526.03;;;8.32;100.00
61014;BME280;46899;47.542;19.082;2023-04-02T04:46:51;99531.28;;;8.31;100.00
61014;BME280;46899;47.542;19.082;2023-04-02T04:50:06;99543.50;;;8.27;100.00
61014;BME280;46899;47.542;19.082;2023-04-02T04:53:21;99541.66;;;8.31;100.00
61014;BME280;46899;47.542;19.082;2023-04-02T04:56:25;99534.72;;;8.31;100.00
61014;BME280;46899;47.542;19.082;2023-04-02T04:59:54;99542.44;;;8.33;100.00
61014;BME280;46899;47.542;19.082;2023-04-02T05:03:15;99537.34;;;8.30;100.00
61014;BME280;46899;47.542;19.082;2023-04-02T05:09:57;99537.66;;;8.44;100.00
61014;BME280;46899;47.542;19.082;2023-04-02T05:13:05;99545.69;;;8.59;100.00
61014;BME280;46899;47.542;19.082;2023-04-02T05:16:17;99546.00;;;8.73;100.00
61014;BME280;46899;47.542;19.082;2023-04-02T05:19:29;99549.38;;;8.95;100.00
61014;BME280;46899;47.542;19.082;2023-04-02T05:26:01;99564.53;;;9.46;100.00
61014;BME280;46899;47.542;19.082;2023-04-02T05:32:24;99566.66;;;9.96;100.00
61014;BME280;46899;47.542;19.082;2023-04-02T05:35:31;99561.16;;;10.02;100.00
61014;BME280;46899;47.542;19.082;2023-04-02T05:38:37;99572.75;;;10.15;99.54
61014;BME280;46899;47.542;19.082;2023-04-02T05:41:42;99570.38;;;10.46;98.22
61014;BME280;46899;47.542;19.082;2023-04-02T05:48:18;99595.19;;;12.24;86.98
61014;BME280;46899;47.542;19.082;2023-04-02T05:51:27;99589.84;;;15.41;69.06
61014;BME280;46899;47.542;19.082;2023-04-02T05:54:34;99595.47;;;17.55;58.63
61014;BME280;46899;47.542;19.082;2023-04-02T05:57:41;99598.53;;;17.49;55.97
61014;BME280;46899;47.542;19.082;2023-04-02T06:01:05;99584.25;;;15.20;64.54
61014;BME280;46899;47.542;19.082;2023-04-02T06:07:30;99585.38;;;13.65;73.87
61014;BME280;46899;47.542;19.082;2023-04-02T06:10:43;99590.91;;;13.89;73.21
61014;BME280;46899;47.542;19.082;2023-04-02T06:13:49;99583.31;;;14.13;71.86
61014;BME280;46899;47.542;19.082;2023-04-02T06:16:52;99590.72;;;17.71;57.22
61014;BME280;46899;47.542;19.082;2023-04-02T06:19:54;99597.28;;;22.43;42.93
61014;BME280;46899;47.542;19.082;2023-04-02T06:29:29;99600.28;;;25.24;33.60
61014;BME280;46899;47.542;19.082;2023-04-02T06:32:36;99607.47;;;25.80;33.11
61014;BME280;46899;47.542;19.082;2023-04-02T06:35:40;99592.03;;;23.58;36.28
61014;BME280;46899;47.542;19.082;2023-04-02T06:38:43;99606.72;;;21.43;40.69
61014;BME280;46899;47.542;19.082;2023-04-02T06:42:10;99609.12;;;20.28;43.38
61014;BME280;46899;47.542;19.082;2023-04-02T06:45:17;99603.31;;;20.74;43.79
61014;BME280;46899;47.542;19.082;2023-04-02T06:48:24;99625.50;;;22.34;39.59
61014;BME280;46899;47.542;19.082;2023-04-02T06:51:27;99607.66;;;22.00;39.83
61014;BME280;46899;47.542;19.082;2023-04-02T06:54:33;99611.87;;;22.20;39.20
61014;BME280;46899;47.542;19.082;2023-04-02T06:57:35;99618.47;;;22.16;39.49
61014;BME280;46899;47.542;19.082;2023-04-02T07:00:45;99608.66;;;21.41;40.57
61014;BME280;46899;47.542;19.082;2023-04-02T07:03:49;99615.84;;;20.12;44.02
61014;BME280;46899;47.542;19.082;2023-04-02T07:06:52;99611.81;;;18.38;48.72
61014;BME280;46899;47.542;19.082;2023-04-02T07:09:55;99616.22;;;19.77;45.51
61014;BME280;46899;47.542;19.082;2023-04-02T07:12:58;99621.34;;;19.37;46.25
61014;BME280;46899;47.542;19.082;2023-04-02T07:16:03;99619.19;;;18.99;47.56
61014;BME280;46899;47.542;19.082;2023-04-02T07:19:08;99617.38;;;19.43;47.99
61014;BME280;46899;47.542;19.082;2023-04-02T07:22:17;99626.87;;;20.47;44.17
61014;BME280;46899;47.542;19.082;2023-04-02T07:25:24;99626.69;;;20.09;44.85
61014;BME280;46899;47.542;19.082;2023-04-02T07:28:27;99628.31;;;18.07;50.55
61014;BME280;46899;47.542;19.082;2023-04-02T07:31:30;99628.69;;;18.02;51.24
61014;BME280;46899;47.542;19.082;2023-04-02T07:34:32;99625.28;;;17.43;53.11
61014;BME280;46899;47.542;19.082;2023-04-02T07:37:36;99636.28;;;17.37;53.91
61014;BME280;46899;47.542;19.082;2023-04-02T07:40:38;99638.69;;;17.64;53.53
61014;BME280;46899;47.542;19.082;2023-04-02T07:43:41;99646.69;;;18.41;50.58
61014;BME280;46899;47.542;19.082;2023-04-02T07:46:43;99652.34;;;18.48;50.83
61014;BME280;46899;47.542;19.082;2023-04-02T07:49:46;99661.53;;;18.76;49.62
61014;BME280;46899;47.542;19.082;2023-04-02T07:52:48;99654.00;;;18.60;49.63
61014;BME280;46899;47.542;19.082;2023-04-02T07:55:51;99653.00;;;17.60;52.51
61014;BME280;46899;47.542;19.082;2023-04-02T07:58:54;99656.69;;;17.92;52.90
61014;BME280;46899;47.542;19.082;2023-04-02T08:01:57;99657.06;;;18.21;52.15
61014;BME280;46899;47.542;19.082;2023-04-02T08:05:00;99657.09;;;18.54;51.45
61014;BME280;46899;47.542;19.082;2023-04-02T08:08:02;99662.03;;;19.24;48.30
61014;BME280;46899;47.542;19.082;2023-04-02T08:11:05;99670.09;;;20.36;45.47
61014;BME280;46899;47.542;19.082;2023-04-02T08:14:08;99668.38;;;20.66;43.93
61014;BME280;46899;47.542;19.082;2023-04-02T08:17:10;99667.19;;;20.39;44.93
61014;BME280;46899;47.542;19.082;2023-04-02T08:20:14;99668.38;;;19.64;47.15
61014;BME280;46899;47.542;19.082;2023-04-02T08:23:19;99675.75;;;18.95;49.13
61014;BME280;46899;47.542;19.082;2023-04-02T08:26:22;99674.75;;;17.62;52.91
61014;BME280;46899;47.542;19.082;2023-04-02T08:29:25;99682.41;;;16.94;56.21
61014;BME280;46899;47.542;19.082;2023-04-02T08:32:30;99681.59;;;17.17;56.99
61014;BME280;46899;47.542;19.082;2023-04-02T08:35:32;99692.78;;;16.72;57.41
61014;BME280;46899;47.542;19.082;2023-04-02T08:38:36;99689.84;;;16.01;60.17
61014;BME280;46899;47.542;19.082;2023-04-02T08:41:50;99689.84;;;16.26;59.68
61014;BME280;46899;47.542;19.082;2023-04-02T08:48:25;99684.12;;;16.82;59.11
61014;BME280;46899;47.542;19.082;2023-04-02T08:51:30;99685.44;;;17.48;56.25
61014;BME280;46899;47.542;19.082;2023-04-02T08:54:34;99688.53;;;18.00;54.57
61014;BME280;46899;47.542;19.082;2023-04-02T09:00:53;99696.31;;;19.24;51.26
61014;BME280;46899;47.542;19.082;2023-04-02T09:03:56;99691.69;;;18.94;51.46
61014;BME280;46899;47.542;19.082;2023-04-02T09:07:00;99696.59;;;18.43;53.07
61014;BME280;46899;47.542;19.082;2023-04-02T09:10:03;99694.56;;;18.35;53.52
61014;BME280;46899;47.542;19.082;2023-04-02T09:13:07;99693.41;;;17.94;54.29
61014;BME280;46899;47.542;19.082;2023-04-02T09:16:16;99699.47;;;18.18;54.94
61014;BME280;46899;47.542;19.082;2023-04-02T09:22:31;99709.66;;;16.93;57.94
61014;BME280;46899;47.542;19.082;2023-04-02T09:25:34;99699.16;;;16.80;59.00
61014;BME280;46899;47.542;19.082;2023-04-02T09:28:37;99700.34;;;16.64;58.93
61014;BME280;46899;47.542;19.082;2023-04-02T09:31:43;99698.97;;;16.58;60.42
61014;BME280;46899;47.542;19.082;2023-04-02T09:34:47;99709.50;;;16.46;60.42
61014;BME280;46899;47.542;19.082;2023-04-02T09:41:18;99714.53;;;16.23;61.43
61014;BME280;46899;47.542;19.082;2023-04-02T09:44:25;99723.16;;;16.51;61.35
61014;BME280;46899;47.542;19.082;2023-04-02T09:47:28;99720.31;;;16.79;59.85
61014;BME280;46899;47.542;19.082;2023-04-02T09:50:33;99725.31;;;16.82;59.41
61014;BME280;46899;47.542;19.082;2023-04-02T09:53:37;99725.25;;;16.71;60.28
61014;BME280;46899;47.542;19.082;2023-04-02T09:56:59;99715.78;;;16.68;59.64
61014;BME280;46899;47.542;19.082;2023-04-02T10:03:34;99726.28;;;16.81;60.79
61014;BME280;46899;47.542;19.082;2023-04-02T10:06:36;99731.84;;;17.25;59.29
61014;BME280;46899;47.542;19.082;2023-04-02T10:09:56;99735.19;;;17.27;57.60
61014;BME280;46899;47.542;19.082;2023-04-02T10:22:28;99729.84;;;16.80;59.97
61014;BME280;46899;47.542;19.082;2023-04-02T10:25:31;99729.00;;;16.92;59.75
61014;BME280;46899;47.542;19.082;2023-04-02T10:38:08;99718.72;;;16.76;59.08
61014;BME280;46899;47.542;19.082;2023-04-02T10:47:43;99714.22;;;16.66;59.17
61014;BME280;46899;47.542;19.082;2023-04-02T10:51:03;99714.13;;;16.55;57.91
61014;BME280;46899;47.542;19.082;2023-04-02T10:57:33;99710.47;;;16.57;58.60
61014;BME280;46899;47.542;19.082;2023-04-02T11:00:38;99705.81;;;16.61;59.15
61014;BME280;46899;47.542;19.082;2023-04-02T11:03:47;99708.47;;;16.97;58.30
61014;BME280;46899;47.542;19.082;2023-04-02T11:06:56;99707.50;;;16.74;59.48
61014;BME280;46899;47.542;19.082;2023-04-02T11:10:15;99701.69;;;17.18;57.08
61014;BME280;46899;47.542;19.082;2023-04-02T11:13:30;99716.84;;;17.38;53.99
61014;BME280;46899;47.542;19.082;2023-04-02T11:16:37;99715.97;;;16.90;55.14
61014;BME280;46899;47.542;19.082;2023-04-02T11:19:44;99718.13;;;16.60;57.22
61014;BME280;46899;47.542;19.082;2023-04-02T11:23:02;99707.19;;;16.28;57.53
61014;BME280;46899;47.542;19.082;2023-04-02T11:26:26;99707.81;;;16.19;57.87
61014;BME280;46899;47.542;19.082;2023-04-02T11:29:29;99702.44;;;15.96;57.22
61014;BME280;46899;47.542;19.082;2023-04-02T11:32:39;99702.00;;;15.89;55.86
61014;BME280;46899;47.542;19.082;2023-04-02T11:35:43;99701.97;;;15.77;56.12
61014;BME280;46899;47.542;19.082;2023-04-02T11:38:48;99696.81;;;15.62;57.53
61014;BME280;46899;47.542;19.082;2023-04-02T11:42:00;99698.09;;;15.69;57.25
61014;BME280;46899;47.542;19.082;2023-04-02T11:54:35;99694.91;;;16.67;52.44
61014;BME280;46899;47.542;19.082;2023-04-02T12:01:12;99696.25;;;17.08;54.57
61014;BME280;46899;47.542;19.082;2023-04-02T12:13:57;99686.25;;;17.37;53.17
61014;BME280;46899;47.542;19.082;2023-04-02T12:17:04;99680.13;;;17.37;50.48
61014;BME280;46899;47.542;19.082;2023-04-02T12:20:19;99680.19;;;17.24;52.03
61014;BME280;46899;47.542;19.082;2023-04-02T12:26:34;99673.06;;;17.26;52.01
61014;BME280;46899;47.542;19.082;2023-04-02T12:29:40;99674.88;;;17.13;54.06
61014;BME280;46899;47.542;19.082;2023-04-02T12:32:42;99672.97;;;16.91;55.47
61014;BME280;46899;47.542;19.082;2023-04-02T12:35:46;99677.59;;;16.88;56.80
61014;BME280;46899;47.542;19.082;2023-04-02T12:38:50;99676.56;;;16.78;57.76
61014;BME280;46899;47.542;19.082;2023-04-02T12:41:53;99663.28;;;16.92;55.00
61014;BME280;46899;47.542;19.082;2023-04-02T12:44:55;99664.56;;;16.86;55.21
61014;BME280;46899;47.542;19.082;2023-04-02T12:47:59;99671.00;;;17.06;54.15
61014;BME280;46899;47.542;19.082;2023-04-02T12:51:04;99669.34;;;17.05;51.63
61014;BME280;46899;47.542;19.082;2023-04-02T12:54:09;99658.75;;;16.94;53.56
61014;BME280;46899;47.542;19.082;2023-04-02T12:57:34;99660.13;;;16.99;53.65
61014;BME280;46899;47.542;19.082;2023-04-02T13:00:38;99659.28;;;16.99;54.17
61014;BME280;46899;47.542;19.082;2023-04-02T13:03:40;99669.19;;;16.95;54.23
61014;BME280;46899;47.542;19.082;2023-04-02T13:06:47;99659.47;;;16.96;55.31
61014;BME280;46899;47.542;19.082;2023-04-02T13:09:53;99662.34;;;16.93;55.12
61014;BME280;46899;47.542;19.082;2023-04-02T13:12:57;99665.97;;;17.03;54.71
61014;BME280;46899;47.542;19.082;2023-04-02T13:19:26;99663.50;;;16.89;55.70
61014;BME280;46899;47.542;19.082;2023-04-02T13:22:29;99664.72;;;16.96;56.10
61014;BME280;46899;47.542;19.082;2023-04-02T13:25:34;99659.28;;;16.99;55.63
61014;BME280;46899;47.542;19.082;2023-04-02T13:28:37;99666.37;;;17.09;54.37
61014;BME280;46899;47.542;19.082;2023-04-02T13:31:40;99675.69;;;16.90;53.52
61014;BME280;46899;47.542;19.082;2023-04-02T13:34:43;99669.88;;;16.74;53.64
61014;BME280;46899;47.542;19.082;2023-04-02T13:37:45;99665.34;;;16.76;52.91
61014;BME280;46899;47.542;19.082;2023-04-02T13:40:48;99665.72;;;16.95;50.96
61014;BME280;46899;47.542;19.082;2023-04-02T13:43:54;99668.88;;;16.87;50.07
61014;BME280;46899;47.542;19.082;2023-04-02T13:46:58;99677.84;;;16.72;51.10
61014;BME280;46899;47.542;19.082;2023-04-02T13:50:01;99662.97;;;16.60;50.90
61014;BME280;46899;47.542;19.082;2023-04-02T13:53:05;99668.63;;;16.54;50.14
61014;BME280;46899;47.542;19.082;2023-04-02T13:56:11;99665.34;;;16.76;49.51
61014;BME280;46899;47.542;19.082;2023-04-02T13:59:14;99665.66;;;16.84;49.30
61014;BME280;46899;47.542;19.082;2023-04-02T14:02:19;99665.37;;;16.99;49.38
61014;BME280;46899;47.542;19.082;2023-04-02T14:15:00;99658.69;;;16.83;49.77
61014;BME280;46899;47.542;19.082;2023-04-02T14:24:43;99660.09;;;16.76;51.89
61014;BME280;46899;47.542;19.082;2023-04-02T14:41:06;99691.72;;;16.49;55.12
61014;BME280;46899;47.542;19.082;2023-04-02T14:44:12;99712.03;;;16.96;54.80
61014;BME280;46899;47.542;19.082;2023-04-02T14:50:23;99723.88;;;16.27;56.80
61014;BME280;46899;47.542;19.082;2023-04-02T14:53:34;99730.59;;;16.31;56.51
61014;BME280;46899;47.542;19.082;2023-04-02T15:00:27;99750.66;;;15.68;58.51
61014;BME280;46899;47.542;19.082;2023-04-02T15:03:36;99747.47;;;14.81;61.90
61014;BME280;46899;47.542;19.082;2023-04-02T15:06:44;99748.78;;;14.02;68.46
61014;BME280;46899;47.542;19.082;2023-04-02T15:09:52;99771.34;;;13.44;74.13
61014;BME280;46899;47.542;19.082;2023-04-02T15:12:56;99770.03;;;13.04;78.88
61014;BME280;46899;47.542;19.082;2023-04-02T15:16:18;99782.91;;;12.76;82.85
61014;BME280;46899;47.542;19.082;2023-04-02T15:19:21;99789.03;;;12.75;87.29
61014;BME280;46899;47.542;19.082;2023-04-02T15:25:49;99806.47;;;12.07;100.00
61014;BME280;46899;47.542;19.082;2023-04-02T15:31:59;99806.31;;;11.39;100.00
61014;BME280;46899;47.542;19.082;2023-04-02T15:38:47;99796.03;;;10.98;100.00
61014;BME280;46899;47.542;19.082;2023-04-02T15:42:03;99792.09;;;10.90;100.00
61014;BME280;46899;47.542;19.082;2023-04-02T15:45:22;99789.13;;;10.97;100.00
61014;BME280;46899;47.542;19.082;2023-04-02T15:51:37;99783.16;;;10.95;100.00
61014;BME280;46899;47.542;19.082;2023-04-02T15:58:04;99779.44;;;11.20;100.00
61014;BME280;46899;47.542;19.082;2023-04-02T16:01:11;99777.84;;;11.53;100.00
61014;BME280;46899;47.542;19.082;2023-04-02T16:10:59;99776.00;;;12.58;100.00
61014;BME280;46899;47.542;19.082;2023-04-02T16:17:29;99773.94;;;13.44;100.00
61014;BME280;46899;47.542;19.082;2023-04-02T16:20:35;99783.91;;;13.83;100.00
61014;BME280;46899;47.542;19.082;2023-04-02T16:23:38;99787.16;;;14.02;100.00
61014;BME280;46899;47.542;19.082;2023-04-02T16:26:58;99792.84;;;14.24;100.00
61014;BME280;46899;47.542;19.082;2023-04-02T16:36:45;99815.97;;;14.16;100.00
61014;BME280;46899;47.542;19.082;2023-04-02T16:46:08;99839.13;;;13.62;100.00
61014;BME280;46899;47.542;19.082;2023-04-02T16:49:16;99834.47;;;13.36;100.00
61014;BME280;46899;47.542;19.082;2023-04-02T17:02:36;99839.53;;;12.41;100.00
61014;BME280;46899;47.542;19.082;2023-04-02T17:08:39;99848.63;;;11.98;100.00
61014;BME280;46899;47.542;19.082;2023-04-02T17:11:50;99858.13;;;11.82;100.00
61014;BME280;46899;47.542;19.082;2023-04-02T17:15:02;99853.72;;;11.64;100.00
61014;BME280;46899;47.542;19.082;2023-04-02T17:18:22;99859.16;;;11.59;100.00
61014;BME280;46899;47.542;19.082;2023-04-02T17:21:28;99872.53;;;11.52;95.30
61014;BME280;46899;47.542;19.082;2023-04-02T17:24:34;99880.09;;;11.58;92.76
61014;BME280;46899;47.542;19.082;2023-04-02T17:27:42;99881.56;;;11.45;88.90
61014;BME280;46899;47.542;19.082;2023-04-02T17:30:46;99885.00;;;11.27;91.13
61014;BME280;46899;47.542;19.082;2023-04-02T17:33:50;99896.03;;;11.13;89.01
61014;BME280;46899;47.542;19.082;2023-04-02T17:39:58;99902.44;;;10.86;85.02
61014;BME280;46899;47.542;19.082;2023-04-02T17:46:20;99922.16;;;10.51;85.39
61014;BME280;46899;47.542;19.082;2023-04-02T17:52:28;99932.06;;;10.21;84.27
61014;BME280;46899;47.542;19.082;2023-04-02T17:55:42;99928.22;;;10.08;85.13
61014;BME280;46899;47.542;19.082;2023-04-02T17:59:02;99932.16;;;9.97;85.38
61014;BME280;46899;47.542;19.082;2023-04-02T18:08:25;99946.78;;;9.54;85.76
61014;BME280;46899;47.542;19.082;2023-04-02T18:11:39;99950.59;;;9.44;86.97
61014;BME280;46899;47.542;19.082;2023-04-02T18:14:55;99954.19;;;9.42;86.32
61014;BME280;46899;47.542;19.082;2023-04-02T18:37:30;100007.75;;;8.95;83.17
61014;BME280;46899;47.542;19.082;2023-04-02T18:46:50;100024.00;;;8.75;84.86
61014;BME280;46899;47.542;19.082;2023-04-02T18:53:12;100027.03;;;8.62;84.42
61014;BME280;46899;47.542;19.082;2023-04-02T18:56:16;100029.97;;;8.51;84.78
61014;BME280;46899;47.542;19.082;2023-04-02T18:59:37;100036.03;;;8.50;84.20
61014;BME280;46899;47.542;19.082;2023-04-02T19:02:46;100037.97;;;8.44;85.99
61014;BME280;46899;47.542;19.082;2023-04-02T19:05:50;100053.75;;;8.36;87.11
61014;BME280;46899;47.542;19.082;2023-04-02T19:09:00;100051.38;;;8.30;86.54
61014;BME280;46899;47.542;19.082;2023-04-02T19:12:19;100048.09;;;8.23;85.62
61014;BME280;46899;47.542;19.082;2023-04-02T19:15:23;100057.09;;;8.12;87.83
61014;BME280;46899;47.542;19.082;2023-04-02T19:22:27;100066.94;;;7.99;88.52
61014;BME280;46899;47.542;19.082;2023-04-02T19:31:36;100081.41;;;7.77;87.88
61014;BME280;46899;47.542;19.082;2023-04-02T19:34:56;100085.94;;;7.69;88.43
61014;BME280;46899;47.542;19.082;2023-04-02T19:38:12;100086.22;;;7.58;88.39
61014;BME280;46899;47.542;19.082;2023-04-02T19:44:23;100101.25;;;7.46;87.81
61014;BME280;46899;47.542;19.082;2023-04-02T19:47:26;100102.94;;;7.47;89.11
61014;BME280;46899;47.542;19.082;2023-04-02T19:50:28;100109.16;;;7.41;89.51
61014;BME280;46899;47.542;19.082;2023-04-02T19:53:31;100112.47;;;7.45;87.57
61014;BME280;46899;47.542;19.082;2023-04-02T19:56:34;100115.06;;;7.45;87.65
61014;BME280;46899;47.542;19.082;2023-04-02T19:59:37;100117.84;;;7.37;88.39
61014;BME280;46899;47.542;19.082;2023-04-02T20:02:39;100130.59;;;7.45;89.59
61014;BME280;46899;47.542;19.082;2023-04-02T20:05:42;100139.19;;;7.47;88.09
61014;BME280;46899;47.542;19.082;2023-04-02T20:08:44;100140.09;;;7.46;88.27
61014;BME280;46899;47.542;19.082;2023-04-02T20:11:47;100140.09;;;7.46;87.88
61014;BME280;46899;47.542;19.082;2023-04-02T20:14:50;100142.66;;;7.46;87.55
61014;BME280;46899;47.542;19.082;2023-04-02T20:17:52;100143.59;;;7.43;87.42
61014;BME280;46899;47.542;19.082;2023-04-02T20:20:55;100151.31;;;7.45;88.58
61014;BME280;46899;47.542;19.082;2023-04-02T20:23:58;100156.34;;;7.51;87.90
61014;BME280;46899;47.542;19.082;2023-04-02T20:27:00;100161.47;;;7.52;87.72
61014;BME280;46899;47.542;19.082;2023-04-02T20:30:03;100170.00;;;7.56;87.03
61014;BME280;46899;47.542;19.082;2023-04-02T20:33:06;100173.53;;;7.53;86.91
61014;BME280;46899;47.542;19.082;2023-04-02T20:36:12;100167.41;;;7.56;87.76
61014;BME280;46899;47.542;19.082;2023-04-02T20:39:14;100178.78;;;7.50;86.77
61014;BME280;46899;47.542;19.082;2023-04-02T20:42:21;100182.13;;;7.54;85.19
61014;BME280;46899;47.542;19.082;2023-04-02T20:45:23;100185.53;;;7.56;86.45
61014;BME280;46899;47.542;19.082;2023-04-02T20:48:29;100193.34;;;7.54;85.35
61014;BME280;46899;47.542;19.082;2023-04-02T20:51:34;100191.56;;;7.56;85.17
61014;BME280;46899;47.542;19.082;2023-04-02T20:54:37;100202.72;;;7.58;85.00
61014;BME280;46899;47.542;19.082;2023-04-02T20:57:39;100207.03;;;7.59;84.62
61014;BME280;46899;47.542;19.082;2023-04-02T21:00:42;100216.69;;;7.53;85.09
61014;BME280;46899;47.542;19.082;2023-04-02T21:03:45;100221.94;;;7.50;84.72
61014;BME280;46899;47.542;19.082;2023-04-02T21:06:48;100227.97;;;7.50;85.25
61014;BME280;46899;47.542;19.082;2023-04-02T21:09:50;100234.19;;;7.42;85.41
61014;BME280;46899;47.542;19.082;2023-04-02T21:12:56;100237.97;;;7.29;86.45
61014;BME280;46899;47.542;19.082;2023-04-02T21:15:58;100240.75;;;7.21;88.19